createdAt,value
2019-03-23T00:01:12.781Z,7.61
2019-03-23T00:03:41.013Z,7.55
2019-03-23T00:06:09.257Z,7.54
2019-03-23T00:08:37.486Z,7.53
2019-03-23T00:11:05.734Z,7.57
2019-03-23T00:13:33.993Z,7.56
2019-03-23T00:16:02.232Z,7.54
2019-03-23T00:18:30.470Z,7.53
2019-03-23T00:20:58.707Z,7.51
2019-03-23T00:23:27.203Z,7.49
2019-03-23T00:25:55.673Z,7.45
2019-03-23T00:28:23.963Z,7.44
2019-03-23T00:30:52.200Z,7.37
2019-03-23T00:33:20.663Z,7.34
2019-03-23T00:35:49.292Z,7.36
2019-03-23T00:38:17.881Z,7.32
2019-03-23T00:40:46.120Z,7.32
2019-03-23T00:43:14.353Z,7.29
2019-03-23T00:45:42.913Z,7.25
2019-03-23T00:48:11.152Z,7.22
2019-03-23T00:50:39.394Z,7.20
2019-03-23T00:53:07.624Z,7.12
2019-03-23T00:55:35.959Z,7.08
2019-03-23T00:58:04.500Z,7.01
2019-03-23T01:00:32.766Z,6.97
2019-03-23T01:03:01.000Z,6.95
2019-03-23T01:05:29.246Z,6.90
2019-03-23T01:07:57.715Z,6.87
2019-03-23T01:10:26.202Z,6.83
2019-03-23T01:12:54.436Z,6.78
2019-03-23T01:15:22.681Z,6.75
2019-03-23T01:17:50.943Z,6.72
2019-03-23T01:20:19.503Z,6.67
2019-03-23T01:22:47.749Z,6.66
2019-03-23T01:25:16.075Z,6.63
2019-03-23T01:27:44.652Z,6.59
2019-03-23T01:30:14.219Z,6.58
2019-03-23T01:32:42.466Z,6.62
2019-03-23T01:35:11.148Z,6.64
2019-03-23T01:37:39.383Z,6.61
2019-03-23T01:40:08.672Z,6.56
2019-03-23T01:42:36.911Z,6.52
2019-03-23T01:45:07.883Z,6.46
2019-03-23T01:47:36.391Z,6.45
2019-03-23T01:50:07.335Z,6.44
2019-03-23T01:52:35.591Z,6.47
2019-03-23T01:55:05.563Z,6.49
2019-03-23T01:57:34.115Z,6.47
2019-03-23T02:00:02.637Z,6.43
2019-03-23T02:02:30.892Z,6.43
2019-03-23T02:05:01.138Z,6.43
2019-03-23T02:07:29.099Z,6.44
2019-03-23T02:09:57.651Z,6.42
2019-03-23T02:12:25.886Z,6.39
2019-03-23T02:14:54.334Z,6.34
2019-03-23T02:17:22.795Z,6.29
2019-03-23T02:19:51.246Z,6.24
2019-03-23T02:22:19.706Z,6.21
2019-03-23T02:24:48.228Z,6.17
2019-03-23T02:27:16.682Z,6.12
2019-03-23T02:29:44.914Z,6.08
2019-03-23T02:32:13.161Z,6.04
2019-03-23T02:34:41.390Z,5.98
2019-03-23T02:37:09.627Z,5.94
2019-03-23T02:39:37.912Z,5.91
2019-03-23T02:42:06.157Z,5.88
2019-03-23T02:44:34.392Z,5.83
2019-03-23T02:47:02.633Z,5.82
2019-03-23T02:49:30.918Z,5.79
2019-03-23T02:51:59.160Z,5.81
2019-03-23T02:54:27.415Z,5.81
2019-03-23T02:56:55.637Z,5.77
2019-03-23T02:59:24.225Z,5.75
2019-03-23T03:01:52.460Z,5.72
2019-03-23T03:04:20.970Z,5.69
2019-03-23T03:06:49.216Z,5.67
2019-03-23T03:09:17.474Z,5.64
2019-03-23T03:11:46.008Z,5.63
2019-03-23T03:14:14.488Z,5.64
2019-03-23T03:16:42.970Z,5.64
2019-03-23T03:19:11.427Z,5.60
2019-03-23T03:21:39.674Z,5.60
2019-03-23T03:24:07.918Z,5.60
2019-03-23T03:26:36.393Z,5.62
2019-03-23T03:29:04.853Z,5.60
2019-03-23T03:31:33.093Z,5.60
2019-03-23T03:34:01.330Z,5.56
2019-03-23T03:36:30.212Z,5.51
2019-03-23T03:38:58.592Z,5.28
2019-03-23T03:41:26.825Z,5.41
2019-03-23T03:43:55.052Z,5.39
2019-03-23T03:46:23.291Z,5.37
2019-03-23T03:48:51.523Z,5.38
2019-03-23T03:51:20.081Z,5.33
2019-03-23T03:56:15.929Z,5.27
2019-03-23T03:58:44.162Z,5.25
2019-03-23T04:01:12.391Z,5.23
2019-03-23T04:03:40.638Z,5.20
2019-03-23T04:06:09.238Z,5.19
2019-03-23T04:08:37.475Z,5.18
2019-03-23T04:11:05.994Z,5.18
2019-03-23T04:13:34.234Z,5.15
2019-03-23T04:16:02.477Z,5.13
2019-03-23T04:18:30.698Z,5.10
2019-03-23T04:20:59.212Z,5.05
2019-03-23T04:23:27.441Z,5.00
2019-03-23T04:25:55.958Z,5.04
2019-03-23T04:28:24.221Z,5.03
2019-03-23T04:30:52.434Z,4.95
2019-03-23T04:33:20.677Z,4.91
2019-03-23T04:35:49.287Z,4.86
2019-03-23T04:38:22.574Z,4.83
2019-03-23T04:40:47.812Z,4.79
2019-03-23T04:43:16.358Z,4.75
2019-03-23T04:45:44.587Z,4.74
2019-03-23T04:48:12.935Z,4.71
2019-03-23T04:50:41.164Z,4.72
2019-03-23T04:53:09.399Z,4.71
2019-03-23T04:55:37.631Z,4.69
2019-03-23T04:58:05.942Z,4.68
2019-03-23T05:00:34.175Z,4.65
2019-03-23T05:03:02.409Z,4.62
2019-03-23T05:05:30.633Z,4.58
2019-03-23T05:07:59.234Z,4.55
2019-03-23T05:10:27.466Z,4.52
2019-03-23T05:12:55.714Z,4.51
2019-03-23T05:15:23.976Z,4.53
2019-03-23T05:17:52.542Z,4.52
2019-03-23T05:20:26.114Z,4.49
2019-03-23T05:22:54.348Z,4.45
2019-03-23T05:25:29.160Z,4.42
2019-03-23T05:27:58.035Z,4.39
2019-03-23T05:30:26.631Z,4.38
2019-03-23T05:32:54.935Z,4.38
2019-03-23T05:35:23.170Z,4.35
2019-03-23T05:37:51.664Z,4.33
2019-03-23T05:40:19.958Z,4.33
2019-03-23T05:42:48.244Z,4.31
2019-03-23T05:45:16.474Z,4.32
2019-03-23T05:47:44.718Z,4.31
2019-03-23T05:50:13.262Z,4.31
2019-03-23T05:52:41.502Z,4.35
2019-03-23T05:55:09.730Z,4.43
2019-03-23T05:57:37.976Z,4.46
2019-03-23T06:00:08.447Z,4.41
2019-03-23T06:02:36.684Z,4.41
2019-03-23T06:05:06.356Z,4.50
2019-03-23T06:07:34.595Z,4.62
2019-03-23T06:10:03.366Z,4.71
2019-03-23T06:12:31.603Z,4.71
2019-03-23T06:15:00.421Z,4.73
2019-03-23T06:17:28.679Z,4.78
2019-03-23T06:19:56.911Z,4.82
2019-03-23T06:22:25.150Z,4.94
2019-03-23T06:24:53.385Z,4.94
2019-03-23T06:27:21.627Z,5.02
2019-03-23T06:29:50.104Z,5.08
2019-03-23T06:32:20.663Z,5.16
2019-03-23T06:34:48.299Z,5.21
2019-03-23T06:37:16.537Z,5.37
2019-03-23T06:39:44.854Z,5.46
2019-03-23T06:42:13.082Z,5.57
2019-03-23T06:44:41.334Z,5.65
2019-03-23T06:47:09.550Z,5.76
2019-03-23T06:49:38.051Z,5.85
2019-03-23T06:52:06.288Z,5.95
2019-03-23T06:54:34.519Z,6.08
2019-03-23T06:57:02.985Z,6.18
2019-03-23T06:59:31.216Z,6.31
2019-03-23T07:01:59.669Z,6.43
2019-03-23T07:04:27.912Z,6.56
2019-03-23T07:06:56.137Z,6.68
2019-03-23T07:09:24.379Z,6.79
2019-03-23T07:11:52.955Z,6.91
2019-03-23T07:14:21.435Z,7.01
2019-03-23T07:16:49.672Z,7.13
2019-03-23T07:19:18.015Z,7.23
2019-03-23T07:21:46.256Z,7.32
2019-03-23T07:24:14.498Z,7.45
2019-03-23T07:26:42.727Z,7.56
2019-03-23T07:29:10.962Z,7.69
2019-03-23T07:31:39.236Z,7.81
2019-03-23T07:34:07.663Z,7.97
2019-03-23T07:36:36.133Z,8.31
2019-03-23T07:39:06.495Z,8.80
2019-03-23T07:41:34.731Z,9.26
2019-03-23T07:44:03.322Z,9.64
2019-03-23T07:46:31.551Z,9.74
2019-03-23T07:48:59.802Z,9.74
2019-03-23T07:51:28.259Z,9.68
2019-03-23T07:53:56.739Z,9.63
2019-03-23T07:56:24.970Z,9.64
2019-03-23T07:58:53.499Z,9.62
2019-03-23T08:01:21.978Z,9.65
2019-03-23T08:03:50.223Z,9.65
2019-03-23T08:06:18.447Z,9.68
2019-03-23T08:08:46.690Z,9.74
2019-03-23T08:11:14.927Z,9.76
2019-03-23T08:13:43.472Z,9.82
2019-03-23T08:16:11.926Z,9.90
2019-03-23T08:18:40.494Z,9.97
2019-03-23T08:21:08.716Z,10.02
2019-03-23T08:23:37.193Z,10.08
2019-03-23T08:26:05.675Z,10.16
2019-03-23T08:28:33.963Z,10.21
2019-03-23T08:31:02.255Z,10.27
2019-03-23T08:33:30.451Z,10.33
2019-03-23T08:35:58.692Z,10.38
2019-03-23T08:38:27.187Z,10.42
2019-03-23T08:40:55.428Z,10.49
2019-03-23T08:43:23.666Z,10.58
2019-03-23T08:45:52.203Z,10.66
2019-03-23T08:48:20.484Z,10.74
2019-03-23T08:50:48.727Z,10.84
2019-03-23T08:53:17.238Z,10.93
2019-03-23T08:55:45.474Z,11.02
2019-03-23T08:58:13.716Z,11.11
2019-03-23T09:00:41.952Z,11.21
2019-03-23T09:03:10.189Z,11.32
2019-03-23T09:05:38.433Z,11.40
2019-03-23T09:08:06.673Z,11.47
2019-03-23T09:10:35.278Z,11.56
2019-03-23T09:13:03.517Z,11.67
2019-03-23T09:15:32.045Z,11.74
2019-03-23T09:18:00.521Z,11.84
2019-03-23T09:20:29.688Z,11.92
2019-03-23T09:22:58.302Z,11.97
2019-03-23T09:25:26.545Z,12.05
2019-03-23T09:27:55.067Z,12.11
2019-03-23T09:30:23.329Z,12.21
2019-03-23T09:32:51.564Z,12.29
2019-03-23T09:35:19.812Z,12.37
2019-03-23T09:37:48.052Z,12.45
2019-03-23T09:40:16.288Z,12.50
2019-03-23T09:42:44.826Z,12.53
2019-03-23T09:45:14.314Z,12.64
2019-03-23T09:47:42.756Z,12.74
2019-03-23T09:50:11.504Z,12.80
2019-03-23T09:52:39.756Z,12.90
2019-03-23T09:55:08.329Z,13.00
2019-03-23T09:57:36.573Z,13.11
2019-03-23T10:00:09.895Z,13.21
2019-03-23T10:02:38.159Z,13.30
2019-03-23T10:05:07.413Z,13.43
2019-03-23T10:07:35.653Z,13.50
2019-03-23T10:10:04.584Z,13.56
2019-03-23T10:12:32.888Z,13.64
2019-03-23T10:15:01.442Z,13.72
2019-03-23T10:17:29.686Z,13.80
2019-03-23T10:19:58.198Z,13.89
2019-03-23T10:22:26.440Z,13.99
2019-03-23T10:24:54.964Z,14.06
2019-03-23T10:27:23.443Z,14.12
2019-03-23T10:29:51.677Z,14.23
2019-03-23T10:32:20.199Z,14.35
2019-03-23T10:34:48.430Z,14.41
2019-03-23T10:37:16.685Z,14.52
2019-03-23T10:39:44.915Z,14.63
2019-03-23T10:42:13.149Z,14.69
2019-03-23T10:44:41.388Z,14.80
2019-03-23T10:47:09.864Z,14.90
2019-03-23T10:49:38.111Z,14.97
2019-03-23T10:52:06.344Z,15.08
2019-03-23T10:54:34.900Z,15.13
2019-03-23T10:57:03.136Z,15.24
2019-03-23T10:59:31.376Z,15.32
2019-03-23T11:01:59.612Z,15.37
2019-03-23T11:04:27.926Z,15.43
2019-03-23T11:06:56.162Z,15.43
2019-03-23T11:09:24.405Z,15.47
2019-03-23T11:11:52.640Z,15.48
2019-03-23T11:14:20.941Z,15.49
2019-03-23T11:16:49.171Z,15.51
2019-03-23T11:19:17.670Z,15.52
2019-03-23T11:21:45.905Z,15.53
2019-03-23T11:24:14.150Z,15.61
2019-03-23T11:26:42.380Z,15.70
2019-03-23T11:29:10.889Z,15.72
2019-03-23T11:31:39.369Z,15.78
2019-03-23T11:34:17.256Z,15.83
2019-03-23T11:36:37.578Z,15.88
2019-03-23T11:39:07.294Z,15.90
2019-03-23T11:41:35.525Z,15.94
2019-03-23T11:44:04.335Z,15.94
2019-03-23T11:46:32.589Z,15.97
2019-03-23T11:49:00.910Z,16.03
2019-03-23T11:51:29.154Z,16.12
2019-03-23T11:53:58.261Z,16.15
2019-03-23T11:56:30.548Z,16.22
2019-03-23T11:58:56.696Z,16.19
2019-03-23T12:01:24.932Z,16.18
2019-03-23T12:03:53.172Z,16.33
2019-03-23T12:06:21.410Z,16.39
2019-03-23T12:08:49.641Z,16.48
2019-03-23T12:11:18.153Z,16.56
2019-03-23T12:13:46.386Z,16.59
2019-03-23T12:16:14.622Z,16.59
2019-03-23T12:18:42.895Z,16.60
2019-03-23T12:21:11.136Z,16.57
2019-03-23T12:23:39.368Z,16.59
2019-03-23T12:26:07.610Z,16.63
2019-03-23T12:28:35.844Z,16.66
2019-03-23T12:31:04.092Z,16.65
2019-03-23T12:33:32.648Z,16.64
2019-03-23T12:36:00.886Z,16.61
2019-03-23T12:38:29.129Z,16.56
2019-03-23T12:40:57.374Z,16.67
2019-03-23T12:43:25.606Z,16.77
2019-03-23T12:45:53.880Z,16.82
2019-03-23T12:48:22.115Z,16.86
2019-03-23T12:50:50.690Z,16.86
2019-03-23T12:53:18.928Z,16.85
2019-03-23T12:55:47.172Z,16.79
2019-03-23T12:58:15.416Z,16.91
2019-03-23T13:00:43.643Z,16.95
2019-03-23T13:03:12.210Z,16.95
2019-03-23T13:05:40.420Z,17.01
2019-03-23T13:08:08.936Z,17.05
2019-03-23T13:10:37.421Z,17.06
2019-03-23T13:13:05.655Z,17.13
2019-03-23T13:15:34.279Z,17.14
2019-03-23T13:18:03.158Z,17.23
2019-03-23T13:20:31.729Z,17.34
2019-03-23T13:22:59.996Z,17.47
2019-03-23T13:25:28.511Z,17.45
2019-03-23T13:27:56.755Z,17.49
2019-03-23T13:30:25.269Z,17.47
2019-03-23T13:32:53.511Z,17.55
2019-03-23T13:35:22.030Z,17.60
2019-03-23T13:37:50.517Z,17.64
2019-03-23T13:40:18.752Z,17.64
2019-03-23T13:42:47.277Z,17.59
2019-03-23T13:45:15.567Z,17.62
2019-03-23T13:47:43.806Z,17.62
2019-03-23T13:50:15.442Z,17.62
2019-03-23T13:52:43.968Z,17.54
2019-03-23T13:55:21.266Z,17.51
2019-03-23T13:57:49.513Z,17.45
2019-03-23T14:00:17.739Z,17.28
2019-03-23T14:02:46.290Z,17.21
2019-03-23T14:05:16.288Z,17.15
2019-03-23T14:07:45.000Z,17.10
2019-03-23T14:10:13.236Z,17.15
2019-03-23T14:12:41.486Z,17.21
2019-03-23T14:15:09.842Z,17.22
2019-03-23T14:17:38.085Z,17.29
2019-03-23T14:20:08.468Z,17.33
2019-03-23T14:22:36.715Z,17.41
2019-03-23T14:25:06.556Z,17.43
2019-03-23T14:27:34.796Z,17.33
2019-03-23T14:30:03.908Z,17.23
2019-03-23T14:32:32.383Z,17.13
2019-03-23T14:35:01.274Z,17.09
2019-03-23T14:37:29.870Z,17.04
2019-03-23T14:39:58.444Z,16.94
2019-03-23T14:42:26.679Z,16.85
2019-03-23T14:44:55.197Z,16.82
2019-03-23T14:47:23.434Z,16.66
2019-03-23T14:49:52.055Z,16.64
2019-03-23T14:52:20.350Z,16.60
2019-03-23T14:54:48.922Z,16.57
2019-03-23T14:57:17.160Z,16.51
2019-03-23T14:59:45.682Z,16.48
2019-03-23T15:02:13.914Z,16.39
2019-03-23T15:04:42.440Z,16.37
2019-03-23T15:07:10.921Z,16.38
2019-03-23T15:09:39.164Z,16.48
2019-03-23T15:12:14.762Z,16.43
2019-03-23T15:14:37.696Z,16.33
2019-03-23T15:17:06.186Z,16.20
2019-03-23T15:19:34.434Z,16.18
2019-03-23T15:22:02.942Z,16.13
2019-03-23T15:24:31.183Z,16.09
2019-03-23T15:26:59.420Z,15.96
2019-03-23T15:29:27.664Z,15.87
2019-03-23T15:31:55.955Z,15.77
2019-03-23T15:34:24.213Z,15.69
2019-03-23T15:36:52.908Z,15.67
2019-03-23T15:39:21.145Z,15.58
2019-03-23T15:41:49.384Z,15.55
2019-03-23T15:44:17.948Z,15.42
2019-03-23T15:46:46.195Z,15.40
2019-03-23T15:49:14.427Z,15.37
2019-03-23T15:51:42.676Z,15.29
2019-03-23T15:54:10.968Z,15.24
2019-03-23T15:56:39.218Z,15.16
2019-03-23T15:59:07.712Z,15.16
2019-03-23T16:01:35.950Z,15.10
2019-03-23T16:04:04.479Z,15.05
2019-03-23T16:06:32.717Z,15.01
2019-03-23T16:09:00.960Z,14.97
2019-03-23T16:11:29.231Z,14.99
2019-03-23T16:13:57.698Z,14.95
2019-03-23T16:16:25.944Z,14.92
2019-03-23T16:18:54.179Z,14.86
2019-03-23T16:21:22.653Z,14.75
2019-03-23T16:23:50.912Z,14.68
2019-03-23T16:26:19.169Z,14.47
2019-03-23T16:28:47.394Z,14.31
2019-03-23T16:31:15.938Z,14.11
2019-03-23T16:33:44.167Z,13.87
2019-03-23T16:36:12.411Z,13.68
2019-03-23T16:38:41.072Z,13.50
2019-03-23T16:41:09.651Z,13.33
2019-03-23T16:43:37.895Z,13.16
2019-03-23T16:46:06.128Z,13.03
2019-03-23T16:48:34.372Z,12.93
2019-03-23T16:51:02.641Z,12.81
2019-03-23T16:53:31.139Z,12.74
2019-03-23T16:55:59.389Z,12.64
2019-03-23T16:58:27.902Z,12.53
2019-03-23T17:00:56.132Z,12.49
2019-03-23T17:03:24.670Z,12.44
2019-03-23T17:05:53.140Z,12.36
2019-03-23T17:08:21.382Z,12.30
2019-03-23T17:10:49.618Z,12.27
2019-03-23T17:13:17.890Z,12.19
2019-03-23T17:15:46.128Z,12.15
2019-03-23T17:18:14.375Z,12.08
2019-03-23T17:20:42.613Z,12.03
2019-03-23T17:23:11.184Z,11.96
2019-03-23T17:25:39.421Z,11.91
2019-03-23T17:28:07.670Z,11.86
2019-03-23T17:30:35.908Z,11.78
2019-03-23T17:33:04.152Z,11.75
2019-03-23T17:35:32.387Z,11.72
2019-03-23T17:38:00.629Z,11.67
2019-03-23T17:40:29.327Z,11.60
2019-03-23T17:43:05.580Z,11.58
2019-03-23T17:45:27.844Z,11.55
2019-03-23T17:47:56.092Z,11.53
2019-03-23T17:50:24.690Z,11.45
2019-03-23T17:52:53.172Z,11.37
2019-03-23T17:55:21.440Z,11.38
2019-03-23T17:57:49.655Z,11.29
2019-03-23T18:00:18.309Z,11.28
2019-03-23T18:02:46.775Z,11.20
2019-03-23T18:05:15.008Z,11.20
2019-03-23T18:07:43.246Z,11.13
2019-03-23T18:10:11.655Z,11.07
2019-03-23T18:12:39.947Z,11.03
2019-03-23T18:15:09.034Z,10.95
2019-03-23T18:17:37.264Z,10.95
2019-03-23T18:20:06.370Z,10.90
2019-03-23T18:22:34.599Z,10.83
2019-03-23T18:25:03.338Z,10.76
2019-03-23T18:27:31.567Z,10.72
2019-03-23T18:29:59.809Z,10.66
2019-03-23T18:32:28.043Z,10.66
2019-03-23T18:34:56.288Z,10.60
2019-03-23T18:37:24.520Z,10.55
2019-03-23T18:39:52.761Z,10.52
2019-03-23T18:42:20.994Z,10.51
2019-03-23T18:44:49.462Z,10.51
2019-03-23T18:47:17.690Z,10.49
2019-03-23T18:49:46.213Z,10.43
2019-03-23T18:52:14.692Z,10.40
2019-03-23T18:54:42.938Z,10.38
2019-03-23T18:57:11.175Z,10.31
2019-03-23T18:59:39.449Z,10.33
2019-03-23T19:02:08.004Z,10.32
2019-03-23T19:04:36.241Z,10.29
2019-03-23T19:07:04.485Z,10.27
2019-03-23T19:09:32.717Z,10.25
2019-03-23T19:12:00.963Z,10.21
2019-03-23T19:14:29.197Z,10.18
2019-03-23T19:16:57.449Z,10.14
2019-03-23T19:19:25.951Z,10.12
2019-03-23T19:21:54.196Z,10.07
2019-03-23T19:24:22.436Z,10.06
2019-03-23T19:26:50.979Z,10.04
2019-03-23T19:29:19.440Z,10.04
2019-03-23T19:31:47.904Z,10.02
2019-03-23T19:34:16.364Z,9.97
2019-03-23T19:36:44.822Z,9.94
2019-03-23T19:39:13.056Z,9.89
2019-03-23T19:41:41.288Z,9.87
2019-03-23T19:44:09.521Z,9.85
2019-03-23T19:46:38.025Z,9.81
2019-03-23T19:49:06.252Z,9.80
2019-03-23T19:51:34.596Z,9.80
2019-03-23T19:54:02.997Z,9.79
2019-03-23T19:56:31.541Z,9.78
2019-03-23T19:59:00.123Z,9.78
2019-03-23T20:01:28.406Z,9.75
2019-03-23T20:03:56.604Z,9.73
2019-03-23T20:06:24.836Z,9.72
2019-03-23T20:08:53.332Z,9.69
2019-03-23T20:11:21.835Z,9.66
2019-03-23T20:13:58.436Z,9.63
2019-03-23T20:16:20.232Z,9.58
2019-03-23T20:18:48.479Z,9.58
2019-03-23T20:21:16.707Z,9.54
2019-03-23T20:23:44.948Z,9.53
2019-03-23T20:26:13.171Z,9.48
2019-03-23T20:28:41.410Z,9.45
2019-03-23T20:31:09.868Z,9.42
2019-03-23T20:33:38.111Z,9.40
2019-03-23T20:36:06.349Z,9.38
2019-03-23T20:38:34.804Z,9.35
2019-03-23T20:41:03.261Z,9.36
2019-03-23T20:43:31.504Z,9.35
2019-03-23T20:45:59.736Z,9.33
2019-03-23T20:48:27.981Z,9.31
2019-03-23T20:50:56.436Z,9.28
2019-03-23T20:53:24.679Z,9.25
2019-03-23T20:55:52.909Z,9.26
2019-03-23T20:58:21.146Z,9.23
2019-03-23T21:00:49.420Z,9.17
2019-03-23T21:03:18.280Z,9.20
2019-03-23T21:05:46.543Z,9.18
2019-03-23T21:08:14.754Z,9.15
2019-03-23T21:10:42.983Z,9.13
2019-03-23T21:13:11.212Z,9.11
2019-03-23T21:15:39.446Z,9.09
2019-03-23T21:18:07.681Z,9.08
2019-03-23T21:20:35.916Z,9.05
2019-03-23T21:23:04.223Z,9.04
2019-03-23T21:25:32.455Z,9.01
2019-03-23T21:28:00.909Z,8.96
2019-03-23T21:30:29.376Z,8.93
2019-03-23T21:32:57.652Z,8.89
2019-03-23T21:35:25.852Z,8.89
2019-03-23T21:37:54.081Z,8.90
2019-03-23T21:40:22.314Z,8.89
2019-03-23T21:42:50.545Z,8.88
2019-03-23T21:45:18.950Z,8.84
2019-03-23T21:47:47.490Z,8.81
2019-03-23T21:50:15.730Z,8.79
2019-03-23T21:52:43.955Z,8.78
2019-03-23T21:55:12.199Z,8.77
2019-03-23T21:57:40.427Z,8.73
2019-03-23T22:00:09.300Z,8.75
2019-03-23T22:02:37.529Z,8.76
2019-03-23T22:05:06.998Z,8.77
2019-03-23T22:07:35.667Z,8.76
2019-03-23T22:10:07.014Z,8.74
2019-03-23T22:12:35.313Z,8.67
2019-03-23T22:15:04.816Z,8.73
2019-03-23T22:17:33.042Z,8.73
2019-03-23T22:20:01.280Z,8.71
2019-03-23T22:22:29.512Z,8.69
2019-03-23T22:24:57.747Z,8.69
2019-03-23T22:27:25.976Z,8.67
2019-03-23T22:29:54.220Z,8.70
2019-03-23T22:32:22.450Z,8.68
2019-03-23T22:34:50.682Z,8.70
2019-03-23T22:37:19.217Z,8.69
2019-03-23T22:39:47.670Z,8.68
2019-03-23T22:42:16.130Z,8.66
2019-03-23T22:44:52.457Z,8.64
2019-03-23T22:47:14.547Z,8.58
2019-03-23T22:49:42.775Z,8.56
2019-03-23T22:52:11.013Z,8.55
2019-03-23T22:54:39.240Z,8.50
2019-03-23T22:57:07.476Z,8.49
2019-03-23T22:59:35.709Z,8.47
2019-03-23T23:02:04.017Z,8.44
2019-03-23T23:04:32.255Z,8.42
2019-03-23T23:07:00.490Z,8.37
2019-03-23T23:09:28.943Z,8.34
2019-03-23T23:11:57.182Z,8.30
2019-03-23T23:14:25.633Z,8.29
2019-03-23T23:16:53.870Z,8.27
2019-03-23T23:19:22.333Z,8.23
2019-03-23T23:21:50.570Z,8.19
2019-03-23T23:24:19.022Z,8.16
2019-03-23T23:26:47.255Z,8.13
2019-03-23T23:29:15.487Z,8.10
2019-03-23T23:31:43.729Z,8.09
2019-03-23T23:34:11.955Z,8.07
2019-03-23T23:36:40.422Z,8.02
2019-03-23T23:39:08.721Z,8.00
2019-03-23T23:41:37.188Z,7.98
2019-03-23T23:44:05.657Z,8.08
2019-03-23T23:46:33.888Z,8.10
2019-03-23T23:49:02.118Z,8.08
2019-03-23T23:51:30.345Z,8.10
2019-03-23T23:53:58.583Z,8.10
2019-03-23T23:58:56.085Z,8.14
